首页
METAR-TAF:

METAR-TAF

机场 :

里加国际机场

里加, 拉脱维亚

纬度: 56-55N, 经度: 023-58E, 海拔: 10米

当前天气观测

该预报发布于34分钟前的17:50 UTC
风速5节,风向南转西南
温度 16°C
湿度 72%
气压 1015 hPa
能见度10公里或以上
1500米以下无云,无积雨云

METAR: EVRA 181750Z 21005KT CAVOK 16/11 Q1015 NOSIG

时间: 21:24 (18:24 UTC)

预报

该预报发布于1小时和21分钟前的17:03 UTC
预报有效从18日的 18点(UTC)到 19日的 18点(UTC)
风速5节,风向
能见度10公里或以上
散云层高于4500英尺
几率 40% :
短暂存在
从 19日的 02点(UTC)到 19日的 05点(UTC)
能見度: 1200
散云层高于300英尺
浅雾, 轻雾
成为
从 19日的 10点(UTC)到 19日的 12点(UTC)
风速10节,风向西转西南

TAF: EVRA 181703Z 1818/1918 19005KT 9999 SCT045 PROB40 TEMPO 1902/1905 1200 MIFG BR SCT003 BECMG 1910/1912 25010KT

超过4000个机场的气象观测和天气预报(METAR&TAF报告)。

可查询的气象台以黄色和红色小点在地图上表示。

将鼠标移到小点上方,可查看气象台名称。

然后点击查看天气观测和预报。

如需切换地图:点击带黑十字的绿色按钮放大地图;点击带横线的绿色按钮缩小地图;或者点击绿色箭头查看邻近地区的地图。


METAR-TAF: